sensor_id;sensor_type;location;lat;lon;timestamp;temperature;humidity
43842;DHT22;29495;49.970;20.842;2022-07-01T00:02:24;24.00;40.50
43842;DHT22;29495;49.970;20.842;2022-07-01T00:04:51;24.00;41.80
43842;DHT22;29495;49.970;20.842;2022-07-01T00:07:36;23.90;41.70
43842;DHT22;29495;49.970;20.842;2022-07-01T00:10:03;23.90;40.70
43842;DHT22;29495;49.970;20.842;2022-07-01T00:12:29;23.70;48.30
43842;DHT22;29495;49.970;20.842;2022-07-01T00:14:55;23.50;53.60
43842;DHT22;29495;49.970;20.842;2022-07-01T00:17:21;23.30;56.20
43842;DHT22;29495;49.970;20.842;2022-07-01T00:19:47;23.20;59.60
43842;DHT22;29495;49.970;20.842;2022-07-01T00:22:14;23.10;61.00
43842;DHT22;29495;49.970;20.842;2022-07-01T00:24:40;23.00;60.70
43842;DHT22;29495;49.970;20.842;2022-07-01T00:27:06;23.20;54.90
43842;DHT22;29495;49.970;20.842;2022-07-01T00:29:32;23.20;54.40
43842;DHT22;29495;49.970;20.842;2022-07-01T00:31:59;23.40;49.70
43842;DHT22;29495;49.970;20.842;2022-07-01T00:34:25;23.40;48.70
43842;DHT22;29495;49.970;20.842;2022-07-01T00:36:51;23.40;48.60
43842;DHT22;29495;49.970;20.842;2022-07-01T00:39:17;23.40;48.10
43842;DHT22;29495;49.970;20.842;2022-07-01T00:41:43;23.20;48.70
43842;DHT22;29495;49.970;20.842;2022-07-01T00:44:19;23.20;51.90
43842;DHT22;29495;49.970;20.842;2022-07-01T00:46:46;23.20;48.60
43842;DHT22;29495;49.970;20.842;2022-07-01T00:49:15;23.00;50.90
43842;DHT22;29495;49.970;20.842;2022-07-01T00:51:41;23.10;50.40
43842;DHT22;29495;49.970;20.842;2022-07-01T00:54:07;23.10;54.20
43842;DHT22;29495;49.970;20.842;2022-07-01T00:56:33;23.00;54.10
43842;DHT22;29495;49.970;20.842;2022-07-01T00:59:00;22.90;55.50
43842;DHT22;29495;49.970;20.842;2022-07-01T01:01:25;22.90;56.90
43842;DHT22;29495;49.970;20.842;2022-07-01T01:03:52;23.00;55.40
43842;DHT22;29495;49.970;20.842;2022-07-01T01:06:18;23.00;57.00
43842;DHT22;29495;49.970;20.842;2022-07-01T01:08:44;23.10;50.80
43842;DHT22;29495;49.970;20.842;2022-07-01T01:11:11;22.80;59.90
43842;DHT22;29495;49.970;20.842;2022-07-01T01:13:37;22.80;64.00
43842;DHT22;29495;49.970;20.842;2022-07-01T01:16:03;22.70;65.80
43842;DHT22;29495;49.970;20.842;2022-07-01T01:18:29;22.70;60.90
43842;DHT22;29495;49.970;20.842;2022-07-01T01:20:55;22.50;66.00
43842;DHT22;29495;49.970;20.842;2022-07-01T01:23:21;22.40;69.50
43842;DHT22;29495;49.970;20.842;2022-07-01T01:25:48;22.20;72.30
43842;DHT22;29495;49.970;20.842;2022-07-01T01:28:14;22.20;68.30
43842;DHT22;29495;49.970;20.842;2022-07-01T01:30:40;22.40;65.40
43842;DHT22;29495;49.970;20.842;2022-07-01T01:33:06;22.50;60.50
43842;DHT22;29495;49.970;20.842;2022-07-01T01:35:34;22.40;62.20
43842;DHT22;29495;49.970;20.842;2022-07-01T01:38:01;22.40;66.70
43842;DHT22;29495;49.970;20.842;2022-07-01T01:40:27;22.30;61.90
43842;DHT22;29495;49.970;20.842;2022-07-01T01:42:52;22.20;67.20
43842;DHT22;29495;49.970;20.842;2022-07-01T01:45:18;22.20;71.80
43842;DHT22;29495;49.970;20.842;2022-07-01T01:47:44;22.20;72.50
43842;DHT22;29495;49.970;20.842;2022-07-01T01:50:12;22.40;65.80
43842;DHT22;29495;49.970;20.842;2022-07-01T01:52:40;22.50;62.80
43842;DHT22;29495;49.970;20.842;2022-07-01T01:55:09;22.40;63.30
43842;DHT22;29495;49.970;20.842;2022-07-01T01:57:35;22.20;68.20
43842;DHT22;29495;49.970;20.842;2022-07-01T02:00:01;22.10;74.20
43842;DHT22;29495;49.970;20.842;2022-07-01T02:02:37;22.10;67.40
43842;DHT22;29495;49.970;20.842;2022-07-01T02:05:05;22.20;64.80
43842;DHT22;29495;49.970;20.842;2022-07-01T02:07:31;22.10;67.60
43842;DHT22;29495;49.970;20.842;2022-07-01T02:09:58;22.00;73.90
43842;DHT22;29495;49.970;20.842;2022-07-01T02:12:24;22.00;69.00
43842;DHT22;29495;49.970;20.842;2022-07-01T02:14:50;22.00;66.70
43842;DHT22;29495;49.970;20.842;2022-07-01T02:17:16;22.20;63.60
43842;DHT22;29495;49.970;20.842;2022-07-01T02:19:42;22.20;63.50
43842;DHT22;29495;49.970;20.842;2022-07-01T02:22:08;22.40;56.60
43842;DHT22;29495;49.970;20.842;2022-07-01T02:24:34;22.40;53.90
43842;DHT22;29495;49.970;20.842;2022-07-01T02:27:00;22.30;53.40
43842;DHT22;29495;49.970;20.842;2022-07-01T02:29:26;22.30;52.60
43842;DHT22;29495;49.970;20.842;2022-07-01T02:31:52;22.30;51.50
43842;DHT22;29495;49.970;20.842;2022-07-01T02:34:18;22.40;53.40
43842;DHT22;29495;49.970;20.842;2022-07-01T02:36:44;22.40;58.30
43842;DHT22;29495;49.970;20.842;2022-07-01T02:39:10;22.30;62.00
43842;DHT22;29495;49.970;20.842;2022-07-01T02:41:35;22.20;63.10
43842;DHT22;29495;49.970;20.842;2022-07-01T02:44:21;22.10;67.30
43842;DHT22;29495;49.970;20.842;2022-07-01T02:46:47;22.00;69.20
43842;DHT22;29495;49.970;20.842;2022-07-01T02:49:13;22.10;70.80
43842;DHT22;29495;49.970;20.842;2022-07-01T02:51:40;22.20;63.00
43842;DHT22;29495;49.970;20.842;2022-07-01T02:54:06;22.20;66.40
43842;DHT22;29495;49.970;20.842;2022-07-01T02:56:32;22.10;68.80
43842;DHT22;29495;49.970;20.842;2022-07-01T02:58:58;22.20;64.90
43842;DHT22;29495;49.970;20.842;2022-07-01T03:01:24;22.20;65.00
43842;DHT22;29495;49.970;20.842;2022-07-01T03:03:50;22.10;66.90
43842;DHT22;29495;49.970;20.842;2022-07-01T03:06:16;22.20;65.40
43842;DHT22;29495;49.970;20.842;2022-07-01T03:08:42;22.20;67.30
43842;DHT22;29495;49.970;20.842;2022-07-01T03:11:08;22.40;63.70
43842;DHT22;29495;49.970;20.842;2022-07-01T03:13:34;22.40;60.60
43842;DHT22;29495;49.970;20.842;2022-07-01T03:16:00;22.50;61.50
43842;DHT22;29495;49.970;20.842;2022-07-01T03:18:26;22.60;57.90
43842;DHT22;29495;49.970;20.842;2022-07-01T03:20:52;22.40;58.90
43842;DHT22;29495;49.970;20.842;2022-07-01T03:23:18;22.40;60.80
43842;DHT22;29495;49.970;20.842;2022-07-01T03:25:44;22.40;63.30
43842;DHT22;29495;49.970;20.842;2022-07-01T03:28:09;22.60;61.10
43842;DHT22;29495;49.970;20.842;2022-07-01T03:30:35;22.60;61.40
43842;DHT22;29495;49.970;20.842;2022-07-01T03:33:01;22.40;67.00
43842;DHT22;29495;49.970;20.842;2022-07-01T03:35:27;22.30;67.30
43842;DHT22;29495;49.970;20.842;2022-07-01T03:38:03;22.50;66.80
43842;DHT22;29495;49.970;20.842;2022-07-01T03:40:30;22.60;63.40
43842;DHT22;29495;49.970;20.842;2022-07-01T03:42:56;22.80;59.40
43842;DHT22;29495;49.970;20.842;2022-07-01T03:45:22;22.70;61.40
43842;DHT22;29495;49.970;20.842;2022-07-01T03:47:48;22.70;61.30
43842;DHT22;29495;49.970;20.842;2022-07-01T03:50:16;22.80;59.40
43842;DHT22;29495;49.970;20.842;2022-07-01T03:52:42;22.90;58.20
43842;DHT22;29495;49.970;20.842;2022-07-01T03:55:09;23.00;55.60
43842;DHT22;29495;49.970;20.842;2022-07-01T03:57:35;23.20;53.20
43842;DHT22;29495;49.970;20.842;2022-07-01T04:00:03;23.40;48.60
43842;DHT22;29495;49.970;20.842;2022-07-01T04:02:30;23.40;56.00
43842;DHT22;29495;49.970;20.842;2022-07-01T04:04:56;23.60;46.80
43842;DHT22;29495;49.970;20.842;2022-07-01T04:07:23;23.70;46.20
43842;DHT22;29495;49.970;20.842;2022-07-01T04:09:49;23.70;42.20
43842;DHT22;29495;49.970;20.842;2022-07-01T04:12:17;23.80;38.60
43842;DHT22;29495;49.970;20.842;2022-07-01T04:14:43;23.90;45.60
43842;DHT22;29495;49.970;20.842;2022-07-01T04:17:09;24.00;36.40
43842;DHT22;29495;49.970;20.842;2022-07-01T04:19:35;24.10;99.90
43842;DHT22;29495;49.970;20.842;2022-07-01T04:22:02;24.20;99.90
43842;DHT22;29495;49.970;20.842;2022-07-01T04:24:47;24.30;99.90
43842;DHT22;29495;49.970;20.842;2022-07-01T04:27:13;24.50;99.90
43842;DHT22;29495;49.970;20.842;2022-07-01T04:29:39;24.60;99.90
43842;DHT22;29495;49.970;20.842;2022-07-01T04:32:05;24.70;99.90
43842;DHT22;29495;49.970;20.842;2022-07-01T04:34:31;24.80;99.90
43842;DHT22;29495;49.970;20.842;2022-07-01T04:36:57;24.90;99.90
43842;DHT22;29495;49.970;20.842;2022-07-01T04:39:24;24.90;99.90
43842;DHT22;29495;49.970;20.842;2022-07-01T04:41:50;25.00;99.90
43842;DHT22;29495;49.970;20.842;2022-07-01T04:44:26;25.10;99.90
43842;DHT22;29495;49.970;20.842;2022-07-01T04:46:52;25.30;99.90
43842;DHT22;29495;49.970;20.842;2022-07-01T04:49:18;25.30;99.90
43842;DHT22;29495;49.970;20.842;2022-07-01T04:51:44;25.40;99.90
43842;DHT22;29495;49.970;20.842;2022-07-01T04:54:10;25.60;99.90
43842;DHT22;29495;49.970;20.842;2022-07-01T04:56:37;25.70;99.90
43842;DHT22;29495;49.970;20.842;2022-07-01T04:59:04;25.80;99.90
43842;DHT22;29495;49.970;20.842;2022-07-01T05:01:31;26.00;99.90
43842;DHT22;29495;49.970;20.842;2022-07-01T05:03:57;26.00;99.90
43842;DHT22;29495;49.970;20.842;2022-07-01T05:06:24;26.20;99.90
43842;DHT22;29495;49.970;20.842;2022-07-01T05:08:50;26.60;99.90
43842;DHT22;29495;49.970;20.842;2022-07-01T05:11:16;27.60;99.90
43842;DHT22;29495;49.970;20.842;2022-07-01T05:13:42;28.60;99.90
43842;DHT22;29495;49.970;20.842;2022-07-01T05:16:08;29.70;99.90
43842;DHT22;29495;49.970;20.842;2022-07-01T05:18:38;30.70;98.50
43842;DHT22;29495;49.970;20.842;2022-07-01T05:21:24;31.50;96.70
43842;DHT22;29495;49.970;20.842;2022-07-01T05:24:09;32.20;94.40
43842;DHT22;29495;49.970;20.842;2022-07-01T05:26:35;32.60;92.20
43842;DHT22;29495;49.970;20.842;2022-07-01T05:29:01;33.70;90.50
43842;DHT22;29495;49.970;20.842;2022-07-01T05:31:27;34.30;85.30
43842;DHT22;29495;49.970;20.842;2022-07-01T05:33:53;35.50;80.70
43842;DHT22;29495;49.970;20.842;2022-07-01T05:36:20;35.40;76.20
43842;DHT22;29495;49.970;20.842;2022-07-01T05:38:46;36.10;75.70
43842;DHT22;29495;49.970;20.842;2022-07-01T05:41:13;36.60;71.60
43842;DHT22;29495;49.970;20.842;2022-07-01T05:43:39;37.20;70.50
43842;DHT22;29495;49.970;20.842;2022-07-01T05:46:05;37.70;65.00
43842;DHT22;29495;49.970;20.842;2022-07-01T05:48:31;37.70;64.50
43842;DHT22;29495;49.970;20.842;2022-07-01T05:50:57;37.90;62.00
43842;DHT22;29495;49.970;20.842;2022-07-01T05:53:23;37.90;60.20
43842;DHT22;29495;49.970;20.842;2022-07-01T05:55:49;38.70;60.00
43842;DHT22;29495;49.970;20.842;2022-07-01T05:58:15;38.30;58.50
43842;DHT22;29495;49.970;20.842;2022-07-01T06:00:41;38.70;60.30
43842;DHT22;29495;49.970;20.842;2022-07-01T06:03:08;38.90;57.20
43842;DHT22;29495;49.970;20.842;2022-07-01T06:05:35;39.30;57.40
43842;DHT22;29495;49.970;20.842;2022-07-01T06:08:01;39.20;56.60
43842;DHT22;29495;49.970;20.842;2022-07-01T06:10:28;39.70;55.40
43842;DHT22;29495;49.970;20.842;2022-07-01T06:12:54;39.00;55.10
43842;DHT22;29495;49.970;20.842;2022-07-01T06:15:20;38.90;56.70
43842;DHT22;29495;49.970;20.842;2022-07-01T06:17:46;39.40;53.60
43842;DHT22;29495;49.970;20.842;2022-07-01T06:20:12;39.40;53.90
43842;DHT22;29495;49.970;20.842;2022-07-01T06:22:38;39.20;53.40
43842;DHT22;29495;49.970;20.842;2022-07-01T06:25:04;40.30;54.00
43842;DHT22;29495;49.970;20.842;2022-07-01T06:27:30;40.50;53.10
43842;DHT22;29495;49.970;20.842;2022-07-01T06:29:56;40.40;52.50
43842;DHT22;29495;49.970;20.842;2022-07-01T06:32:22;39.90;51.70
43842;DHT22;29495;49.970;20.842;2022-07-01T06:34:48;41.00;51.50
43842;DHT22;29495;49.970;20.842;2022-07-01T06:37:14;41.10;51.20
43842;DHT22;29495;49.970;20.842;2022-07-01T06:39:40;41.40;52.10
43842;DHT22;29495;49.970;20.842;2022-07-01T06:42:06;41.80;50.00
43842;DHT22;29495;49.970;20.842;2022-07-01T06:44:32;41.10;48.70
43842;DHT22;29495;49.970;20.842;2022-07-01T06:46:58;41.40;49.00
43842;DHT22;29495;49.970;20.842;2022-07-01T06:49:24;42.00;49.20
43842;DHT22;29495;49.970;20.842;2022-07-01T06:51:50;41.70;48.10
43842;DHT22;29495;49.970;20.842;2022-07-01T06:54:17;41.40;49.10
43842;DHT22;29495;49.970;20.842;2022-07-01T06:56:43;41.10;50.70
43842;DHT22;29495;49.970;20.842;2022-07-01T06:59:09;41.00;50.70
43842;DHT22;29495;49.970;20.842;2022-07-01T07:01:35;41.70;50.60
43842;DHT22;29495;49.970;20.842;2022-07-01T07:04:01;41.30;49.60
43842;DHT22;29495;49.970;20.842;2022-07-01T07:06:27;41.50;49.50
43842;DHT22;29495;49.970;20.842;2022-07-01T07:08:53;41.50;48.60
43842;DHT22;29495;49.970;20.842;2022-07-01T07:11:19;41.30;48.50
43842;DHT22;29495;49.970;20.842;2022-07-01T07:13:45;41.20;47.50
43842;DHT22;29495;49.970;20.842;2022-07-01T07:16:11;41.20;48.10
43842;DHT22;29495;49.970;20.842;2022-07-01T07:18:37;41.10;48.80
43842;DHT22;29495;49.970;20.842;2022-07-01T07:21:03;40.70;49.20
43842;DHT22;29495;49.970;20.842;2022-07-01T07:23:29;40.70;49.10
43842;DHT22;29495;49.970;20.842;2022-07-01T07:25:55;41.20;50.30
43842;DHT22;29495;49.970;20.842;2022-07-01T07:28:22;40.80;47.70
43842;DHT22;29495;49.970;20.842;2022-07-01T07:30:49;40.60;48.60
43842;DHT22;29495;49.970;20.842;2022-07-01T07:33:14;39.70;49.60
43842;DHT22;29495;49.970;20.842;2022-07-01T07:35:40;39.40;50.20
43842;DHT22;29495;49.970;20.842;2022-07-01T07:38:06;38.10;50.90
43842;DHT22;29495;49.970;20.842;2022-07-01T07:40:34;37.40;52.00
43842;DHT22;29495;49.970;20.842;2022-07-01T07:43:00;36.70;53.50
43842;DHT22;29495;49.970;20.842;2022-07-01T07:45:26;36.60;54.30
43842;DHT22;29495;49.970;20.842;2022-07-01T07:47:52;36.20;55.20
43842;DHT22;29495;49.970;20.842;2022-07-01T07:50:21;35.90;55.50
43842;DHT22;29495;49.970;20.842;2022-07-01T07:52:48;36.10;56.30
43842;DHT22;29495;49.970;20.842;2022-07-01T07:55:14;35.80;55.80
43842;DHT22;29495;49.970;20.842;2022-07-01T07:57:40;35.40;57.50
43842;DHT22;29495;49.970;20.842;2022-07-01T08:00:08;35.30;56.30
43842;DHT22;29495;49.970;20.842;2022-07-01T08:02:39;34.90;55.80
43842;DHT22;29495;49.970;20.842;2022-07-01T08:05:06;34.90;57.10
43842;DHT22;29495;49.970;20.842;2022-07-01T08:07:40;34.90;56.50
43842;DHT22;29495;49.970;20.842;2022-07-01T08:10:09;34.90;56.40
43842;DHT22;29495;49.970;20.842;2022-07-01T08:12:35;34.80;59.40
43842;DHT22;29495;49.970;20.842;2022-07-01T08:15:02;34.90;55.70
43842;DHT22;29495;49.970;20.842;2022-07-01T08:17:28;35.10;56.30
43842;DHT22;29495;49.970;20.842;2022-07-01T08:19:54;35.20;55.90
43842;DHT22;29495;49.970;20.842;2022-07-01T08:22:20;35.60;57.50
43842;DHT22;29495;49.970;20.842;2022-07-01T08:24:46;35.80;58.70
43842;DHT22;29495;49.970;20.842;2022-07-01T08:27:12;35.70;55.00
43842;DHT22;29495;49.970;20.842;2022-07-01T08:29:39;35.80;55.40
43842;DHT22;29495;49.970;20.842;2022-07-01T08:32:06;36.00;54.00
43842;DHT22;29495;49.970;20.842;2022-07-01T08:34:32;35.90;56.10
43842;DHT22;29495;49.970;20.842;2022-07-01T08:36:59;35.70;55.60
43842;DHT22;29495;49.970;20.842;2022-07-01T08:39:26;35.70;56.30
43842;DHT22;29495;49.970;20.842;2022-07-01T08:41:52;35.70;53.40
43842;DHT22;29495;49.970;20.842;2022-07-01T08:44:18;35.80;55.00
43842;DHT22;29495;49.970;20.842;2022-07-01T08:46:44;35.60;53.40
43842;DHT22;29495;49.970;20.842;2022-07-01T08:49:12;35.70;54.30
43842;DHT22;29495;49.970;20.842;2022-07-01T08:51:38;35.80;53.60
43842;DHT22;29495;49.970;20.842;2022-07-01T08:54:04;35.90;53.40
43842;DHT22;29495;49.970;20.842;2022-07-01T08:56:29;35.80;52.90
43842;DHT22;29495;49.970;20.842;2022-07-01T08:59:24;35.90;53.70
43842;DHT22;29495;49.970;20.842;2022-07-01T09:01:58;35.90;53.50
43842;DHT22;29495;49.970;20.842;2022-07-01T09:04:25;36.40;53.70
43842;DHT22;29495;49.970;20.842;2022-07-01T09:07:00;36.40;55.00
43842;DHT22;29495;49.970;20.842;2022-07-01T09:09:27;36.30;52.50
43842;DHT22;29495;49.970;20.842;2022-07-01T09:11:55;36.60;55.00
43842;DHT22;29495;49.970;20.842;2022-07-01T09:14:25;36.30;54.60
43842;DHT22;29495;49.970;20.842;2022-07-01T09:17:00;36.30;55.30
43842;DHT22;29495;49.970;20.842;2022-07-01T09:19:28;36.20;54.30
43842;DHT22;29495;49.970;20.842;2022-07-01T09:21:56;36.10;52.70
43842;DHT22;29495;49.970;20.842;2022-07-01T09:24:29;36.30;53.30
43842;DHT22;29495;49.970;20.842;2022-07-01T09:27:01;36.40;51.10
43842;DHT22;29495;49.970;20.842;2022-07-01T09:29:33;36.50;53.60
43842;DHT22;29495;49.970;20.842;2022-07-01T09:32:01;36.40;53.10
43842;DHT22;29495;49.970;20.842;2022-07-01T09:34:38;36.30;54.70
43842;DHT22;29495;49.970;20.842;2022-07-01T09:37:05;36.10;52.30
43842;DHT22;29495;49.970;20.842;2022-07-01T09:42:10;36.70;53.50
43842;DHT22;29495;49.970;20.842;2022-07-01T09:47:29;36.90;53.70
43842;DHT22;29495;49.970;20.842;2022-07-01T09:49:56;36.40;50.40
43842;DHT22;29495;49.970;20.842;2022-07-01T09:52:23;36.20;52.10
43842;DHT22;29495;49.970;20.842;2022-07-01T09:54:50;36.30;52.20
43842;DHT22;29495;49.970;20.842;2022-07-01T09:57:17;36.20;51.50
43842;DHT22;29495;49.970;20.842;2022-07-01T09:59:44;36.40;54.30
43842;DHT22;29495;49.970;20.842;2022-07-01T10:02:11;36.30;52.40
43842;DHT22;29495;49.970;20.842;2022-07-01T10:04:40;36.70;52.70
43842;DHT22;29495;49.970;20.842;2022-07-01T10:07:18;36.50;52.90
43842;DHT22;29495;49.970;20.842;2022-07-01T10:12:44;36.70;52.20
43842;DHT22;29495;49.970;20.842;2022-07-01T10:15:15;36.30;51.40
43842;DHT22;29495;49.970;20.842;2022-07-01T10:17:48;36.60;50.90
43842;DHT22;29495;49.970;20.842;2022-07-01T10:20:16;36.80;51.30
43842;DHT22;29495;49.970;20.842;2022-07-01T10:22:44;37.00;50.80
43842;DHT22;29495;49.970;20.842;2022-07-01T10:28:39;36.90;52.70
43842;DHT22;29495;49.970;20.842;2022-07-01T10:31:16;37.10;50.50
43842;DHT22;29495;49.970;20.842;2022-07-01T10:41:54;37.20;50.20
43842;DHT22;29495;49.970;20.842;2022-07-01T10:44:23;37.10;50.10
43842;DHT22;29495;49.970;20.842;2022-07-01T10:47:05;37.40;49.90
43842;DHT22;29495;49.970;20.842;2022-07-01T10:52:08;37.10;50.90
43842;DHT22;29495;49.970;20.842;2022-07-01T11:00:28;37.30;47.20
43842;DHT22;29495;49.970;20.842;2022-07-01T11:02:33;37.20;47.10
43842;DHT22;29495;49.970;20.842;2022-07-01T11:05:07;37.50;46.80
43842;DHT22;29495;49.970;20.842;2022-07-01T11:07:35;37.60;45.70
43842;DHT22;29495;49.970;20.842;2022-07-01T11:10:04;37.50;47.30
43842;DHT22;29495;49.970;20.842;2022-07-01T11:12:31;37.10;44.80
43842;DHT22;29495;49.970;20.842;2022-07-01T11:14:58;37.10;46.60
43842;DHT22;29495;49.970;20.842;2022-07-01T11:17:25;37.20;46.70
43842;DHT22;29495;49.970;20.842;2022-07-01T11:19:54;37.60;47.40
43842;DHT22;29495;49.970;20.842;2022-07-01T11:22:24;37.70;45.40
43842;DHT22;29495;49.970;20.842;2022-07-01T11:25:10;37.90;45.60
43842;DHT22;29495;49.970;20.842;2022-07-01T11:27:37;37.60;44.50
43842;DHT22;29495;49.970;20.842;2022-07-01T11:30:06;37.70;46.50
43842;DHT22;29495;49.970;20.842;2022-07-01T11:32:36;37.60;45.90
43842;DHT22;29495;49.970;20.842;2022-07-01T11:35:03;37.30;46.80
43842;DHT22;29495;49.970;20.842;2022-07-01T11:37:49;37.50;47.20
43842;DHT22;29495;49.970;20.842;2022-07-01T11:40:34;37.40;46.60
43842;DHT22;29495;49.970;20.842;2022-07-01T11:43:00;37.50;46.60
43842;DHT22;29495;49.970;20.842;2022-07-01T11:45:26;37.30;46.50
43842;DHT22;29495;49.970;20.842;2022-07-01T11:47:53;37.20;46.30
43842;DHT22;29495;49.970;20.842;2022-07-01T11:50:19;37.60;45.10
43842;DHT22;29495;49.970;20.842;2022-07-01T11:52:46;37.80;48.20
43842;DHT22;29495;49.970;20.842;2022-07-01T11:55:12;37.80;48.00
43842;DHT22;29495;49.970;20.842;2022-07-01T11:57:38;37.90;46.80
43842;DHT22;29495;49.970;20.842;2022-07-01T12:00:11;37.90;42.30
43842;DHT22;29495;49.970;20.842;2022-07-01T12:02:38;38.00;43.80
43842;DHT22;29495;49.970;20.842;2022-07-01T12:05:05;37.90;43.00
43842;DHT22;29495;49.970;20.842;2022-07-01T12:07:31;38.20;43.80
43842;DHT22;29495;49.970;20.842;2022-07-01T12:09:58;38.30;41.60
43842;DHT22;29495;49.970;20.842;2022-07-01T12:12:24;38.10;40.30
43842;DHT22;29495;49.970;20.842;2022-07-01T12:14:55;38.20;41.70
43842;DHT22;29495;49.970;20.842;2022-07-01T12:17:22;38.10;40.60
43842;DHT22;29495;49.970;20.842;2022-07-01T12:19:49;38.30;41.50
43842;DHT22;29495;49.970;20.842;2022-07-01T12:22:20;38.50;43.50
43842;DHT22;29495;49.970;20.842;2022-07-01T12:24:47;38.50;42.50
43842;DHT22;29495;49.970;20.842;2022-07-01T12:27:14;38.60;41.10
43842;DHT22;29495;49.970;20.842;2022-07-01T12:32:11;38.20;43.10
43842;DHT22;29495;49.970;20.842;2022-07-01T12:34:57;38.20;42.70
43842;DHT22;29495;49.970;20.842;2022-07-01T12:37:35;38.00;41.20
43842;DHT22;29495;49.970;20.842;2022-07-01T12:40:19;37.80;41.40
43842;DHT22;29495;49.970;20.842;2022-07-01T12:42:46;38.00;39.60
43842;DHT22;29495;49.970;20.842;2022-07-01T12:45:14;38.00;41.30
43842;DHT22;29495;49.970;20.842;2022-07-01T12:47:45;38.20;42.80
43842;DHT22;29495;49.970;20.842;2022-07-01T12:50:21;38.40;42.50
43842;DHT22;29495;49.970;20.842;2022-07-01T12:55:30;38.20;41.60
43842;DHT22;29495;49.970;20.842;2022-07-01T12:57:57;38.10;41.60
43842;DHT22;29495;49.970;20.842;2022-07-01T13:00:25;38.10;41.00
43842;DHT22;29495;49.970;20.842;2022-07-01T13:02:58;38.10;40.20
43842;DHT22;29495;49.970;20.842;2022-07-01T13:05:25;37.80;42.10
43842;DHT22;29495;49.970;20.842;2022-07-01T13:07:51;37.90;42.80
43842;DHT22;29495;49.970;20.842;2022-07-01T13:10:18;38.10;41.70
43842;DHT22;29495;49.970;20.842;2022-07-01T13:12:45;38.10;42.40
43842;DHT22;29495;49.970;20.842;2022-07-01T13:15:15;38.20;43.10
43842;DHT22;29495;49.970;20.842;2022-07-01T13:17:42;38.50;42.30
43842;DHT22;29495;49.970;20.842;2022-07-01T13:20:09;37.90;43.00
43842;DHT22;29495;49.970;20.842;2022-07-01T13:22:36;37.90;43.20
43842;DHT22;29495;49.970;20.842;2022-07-01T13:25:02;37.90;42.50
43842;DHT22;29495;49.970;20.842;2022-07-01T13:27:29;37.90;43.30
43842;DHT22;29495;49.970;20.842;2022-07-01T13:29:55;38.20;44.00
43842;DHT22;29495;49.970;20.842;2022-07-01T13:32:22;38.30;42.60
43842;DHT22;29495;49.970;20.842;2022-07-01T13:34:49;38.30;44.00
43842;DHT22;29495;49.970;20.842;2022-07-01T13:37:15;38.40;44.70
43842;DHT22;29495;49.970;20.842;2022-07-01T13:39:41;38.40;43.70
43842;DHT22;29495;49.970;20.842;2022-07-01T13:42:08;38.30;42.40
43842;DHT22;29495;49.970;20.842;2022-07-01T13:44:34;38.20;42.70
43842;DHT22;29495;49.970;20.842;2022-07-01T13:47:01;38.00;42.40
43842;DHT22;29495;49.970;20.842;2022-07-01T13:49:31;37.90;43.20
43842;DHT22;29495;49.970;20.842;2022-07-01T13:51:57;37.80;43.30
43842;DHT22;29495;49.970;20.842;2022-07-01T13:54:23;38.10;43.40
43842;DHT22;29495;49.970;20.842;2022-07-01T13:56:49;38.10;43.50
43842;DHT22;29495;49.970;20.842;2022-07-01T13:59:15;38.10;43.50
43842;DHT22;29495;49.970;20.842;2022-07-01T14:01:41;37.70;42.80
43842;DHT22;29495;49.970;20.842;2022-07-01T14:04:07;37.70;42.70
43842;DHT22;29495;49.970;20.842;2022-07-01T14:06:33;37.80;44.00
43842;DHT22;29495;49.970;20.842;2022-07-01T14:08:59;37.90;44.00
43842;DHT22;29495;49.970;20.842;2022-07-01T14:11:25;38.10;43.80
43842;DHT22;29495;49.970;20.842;2022-07-01T14:13:51;38.00;44.30
43842;DHT22;29495;49.970;20.842;2022-07-01T14:16:16;38.00;43.70
43842;DHT22;29495;49.970;20.842;2022-07-01T14:18:43;37.90;43.20
43842;DHT22;29495;49.970;20.842;2022-07-01T14:21:10;38.00;42.90
43842;DHT22;29495;49.970;20.842;2022-07-01T14:23:36;37.90;44.00
43842;DHT22;29495;49.970;20.842;2022-07-01T14:26:02;37.80;42.00
43842;DHT22;29495;49.970;20.842;2022-07-01T14:28:29;37.90;44.00
43842;DHT22;29495;49.970;20.842;2022-07-01T14:30:55;37.80;42.80
43842;DHT22;29495;49.970;20.842;2022-07-01T14:33:21;37.90;42.40
43842;DHT22;29495;49.970;20.842;2022-07-01T14:35:48;37.90;43.60
43842;DHT22;29495;49.970;20.842;2022-07-01T14:38:16;37.70;43.50
43842;DHT22;29495;49.970;20.842;2022-07-01T14:40:42;37.50;43.20
43842;DHT22;29495;49.970;20.842;2022-07-01T14:43:08;37.40;43.70
43842;DHT22;29495;49.970;20.842;2022-07-01T14:45:35;37.30;43.90
43842;DHT22;29495;49.970;20.842;2022-07-01T14:48:01;37.00;44.10
43842;DHT22;29495;49.970;20.842;2022-07-01T14:50:27;36.80;44.70
43842;DHT22;29495;49.970;20.842;2022-07-01T14:52:53;36.60;45.20
43842;DHT22;29495;49.970;20.842;2022-07-01T14:55:19;36.20;44.70
43842;DHT22;29495;49.970;20.842;2022-07-01T14:57:45;36.20;46.00
43842;DHT22;29495;49.970;20.842;2022-07-01T15:00:11;36.30;44.50
43842;DHT22;29495;49.970;20.842;2022-07-01T15:02:38;36.60;46.00
43842;DHT22;29495;49.970;20.842;2022-07-01T15:05:04;36.80;46.50
43842;DHT22;29495;49.970;20.842;2022-07-01T15:07:30;36.80;45.40
43842;DHT22;29495;49.970;20.842;2022-07-01T15:09:57;36.80;45.00
43842;DHT22;29495;49.970;20.842;2022-07-01T15:12:25;36.90;45.60
43842;DHT22;29495;49.970;20.842;2022-07-01T15:14:51;36.90;46.20
43842;DHT22;29495;49.970;20.842;2022-07-01T15:17:17;37.00;46.10
43842;DHT22;29495;49.970;20.842;2022-07-01T15:19:43;36.90;46.90
43842;DHT22;29495;49.970;20.842;2022-07-01T15:22:09;37.00;45.90
43842;DHT22;29495;49.970;20.842;2022-07-01T15:24:36;37.00;45.80
43842;DHT22;29495;49.970;20.842;2022-07-01T15:27:03;37.10;46.00
43842;DHT22;29495;49.970;20.842;2022-07-01T15:29:29;37.10;45.80
43842;DHT22;29495;49.970;20.842;2022-07-01T15:31:56;37.00;45.60
43842;DHT22;29495;49.970;20.842;2022-07-01T15:34:22;36.90;44.90
43842;DHT22;29495;49.970;20.842;2022-07-01T15:36:48;36.90;45.60
43842;DHT22;29495;49.970;20.842;2022-07-01T15:39:15;37.00;45.40
43842;DHT22;29495;49.970;20.842;2022-07-01T15:41:43;37.10;46.30
43842;DHT22;29495;49.970;20.842;2022-07-01T15:44:09;37.10;45.10
43842;DHT22;29495;49.970;20.842;2022-07-01T15:46:35;36.90;45.30
43842;DHT22;29495;49.970;20.842;2022-07-01T15:49:02;37.00;46.00
43842;DHT22;29495;49.970;20.842;2022-07-01T15:51:29;37.00;47.10